Time;durP1;ratioP1;P1;durP2;ratioP2;P2;SDS_P1;SDS_P2;PMS_P1;PMS_P2;Temp;Humidity;BMP_temperature;BMP_pressure;BME280_temperature;BME280_humidity;BME280_pressure;Samples;Min_cycle;Max_cycle;Signal;HPM_P1;HPM_P2
2022/07/31 00:00:22;;;;;;;6.28;3.58;;;19.60;99.90;;;;;;5029224;28;20100;-64
2022/07/31 00:02:48;;;;;;;8.93;3.65;;;19.60;99.90;;;;;;5035010;28;20482;-60
2022/07/31 00:05:14;;;;;;;5.72;3.15;;;19.60;99.90;;;;;;5047936;28;20087;-62
2022/07/31 00:07:39;;;;;;;7.00;3.38;;;19.60;99.90;;;;;;5031055;28;20041;-62
2022/07/31 00:10:06;;;;;;;8.25;3.55;;;19.60;99.90;;;;;;5015177;28;20029;-62
2022/07/31 00:12:33;;;;;;;5.40;3.50;;;19.60;99.90;;;;;;5034198;28;20128;-62
2022/07/31 00:15:04;;;;;;;8.43;3.40;;;19.60;99.90;;;;;;5030406;28;20127;-61
2022/07/31 00:17:30;;;;;;;5.90;3.72;;;19.60;99.90;;;;;;5033385;28;20029;-61
2022/07/31 00:19:55;;;;;;;8.60;4.05;;;19.50;99.90;;;;;;5028509;28;20087;-61
2022/07/31 00:22:21;;;;;;;7.00;3.53;;;19.50;99.90;;;;;;5025142;28;20050;-61
2022/07/31 00:24:47;;;;;;;7.05;3.72;;;19.50;99.90;;;;;;5024327;28;20038;-62
2022/07/31 00:27:12;;;;;;;5.30;3.92;;;19.50;99.90;;;;;;5021486;28;20115;-62
2022/07/31 00:29:39;;;;;;;7.95;3.65;;;19.50;99.90;;;;;;5024292;28;20044;-62
2022/07/31 00:32:05;;;;;;;6.53;3.85;;;19.50;99.90;;;;;;5027972;28;20045;-61
2022/07/31 00:34:31;;;;;;;6.13;4.07;;;19.50;99.90;;;;;;5031070;28;20029;-62
2022/07/31 00:36:56;;;;;;;5.95;3.50;;;19.60;99.90;;;;;;5035236;28;20037;-61
2022/07/31 00:39:23;;;;;;;6.40;3.65;;;19.60;99.90;;;;;;5031215;28;20037;-61
2022/07/31 00:41:49;;;;;;;6.30;4.13;;;19.60;99.90;;;;;;5041708;28;20038;-61
2022/07/31 00:44:14;;;;;;;9.38;3.97;;;19.60;99.90;;;;;;5029184;28;20052;-61
2022/07/31 00:46:40;;;;;;;8.77;3.88;;;19.50;99.90;;;;;;5045268;28;20041;-61
2022/07/31 00:49:09;;;;;;;8.43;3.90;;;19.60;99.90;;;;;;5031515;28;20033;-62
2022/07/31 00:51:36;;;;;;;6.38;3.90;;;19.60;99.90;;;;;;5034782;28;20042;-62
2022/07/31 00:54:02;;;;;;;5.93;3.78;;;19.60;99.90;;;;;;5027335;28;20144;-63
2022/07/31 00:56:28;;;;;;;7.53;3.80;;;19.60;99.90;;;;;;5034876;28;20098;-61
2022/07/31 00:58:54;;;;;;;7.60;4.22;;;19.60;99.90;;;;;;5034764;28;20033;-61
2022/07/31 01:01:21;;;;;;;7.30;4.00;;;19.50;99.90;;;;;;5034900;28;20041;-61
2022/07/31 01:03:47;;;;;;;6.05;3.83;;;19.50;99.90;;;;;;5025477;28;20049;-61
2022/07/31 01:06:13;;;;;;;8.75;3.83;;;19.50;99.90;;;;;;5034803;28;20041;-62
2022/07/31 01:08:39;;;;;;;7.05;4.38;;;19.50;99.90;;;;;;5034510;28;20037;-61
2022/07/31 01:11:12;;;;;;;7.72;3.67;;;19.50;99.90;;;;;;5034526;28;20481;-61
2022/07/31 01:13:52;;;;;;;8.55;4.20;;;19.50;99.90;;;;;;5023825;28;20518;-61
2022/07/31 01:16:18;;;;;;;6.43;4.05;;;19.50;99.90;;;;;;5030688;28;20046;-61
2022/07/31 01:18:46;;;;;;;6.18;3.70;;;19.50;99.90;;;;;;5028820;28;20049;-61
2022/07/31 01:21:19;;;;;;;7.25;4.00;;;19.50;99.90;;;;;;5033056;28;20088;-63
2022/07/31 01:24:02;;;;;;;8.68;3.80;;;19.50;99.90;;;;;;5040710;28;20041;-61
2022/07/31 01:26:40;;;;;;;6.53;3.88;;;19.50;99.90;;;;;;5038212;28;20033;-61
2022/07/31 01:29:19;;;;;;;8.10;4.40;;;19.50;99.90;;;;;;5034170;28;20037;-62
2022/07/31 01:31:51;;;;;;;6.70;4.18;;;19.50;99.90;;;;;;5051691;28;20072;-61
2022/07/31 01:34:59;;;;;;;8.35;4.13;;;19.40;99.90;;;;;;5027975;28;20037;-64
2022/07/31 01:37:30;;;;;;;7.72;4.25;;;19.40;99.90;;;;;;5030699;28;20048;-62
2022/07/31 01:40:19;;;;;;;6.20;4.40;;;19.40;99.90;;;;;;5048418;28;20033;-62
2022/07/31 01:42:52;;;;;;;7.68;4.30;;;19.40;99.90;;;;;;5037822;28;20083;-62
2022/07/31 01:45:19;;;;;;;7.63;4.55;;;19.40;99.90;;;;;;5036609;28;20025;-62
2022/07/31 01:47:47;;;;;;;7.47;4.13;;;19.30;99.90;;;;;;5044662;28;20034;-62
2022/07/31 01:50:14;;;;;;;8.07;4.20;;;19.30;99.90;;;;;;5047500;28;20366;-62
2022/07/31 01:52:42;;;;;;;6.95;3.78;;;19.30;99.90;;;;;;5014314;28;20124;-61
2022/07/31 01:55:11;;;;;;;6.78;4.10;;;19.30;99.90;;;;;;5047559;28;20076;-62
2022/07/31 01:57:40;;;;;;;6.15;4.25;;;19.30;99.90;;;;;;5046787;28;20466;-61
2022/07/31 02:00:08;;;;;;;7.05;3.70;;;19.30;99.90;;;;;;5033667;28;20040;-61
2022/07/31 02:02:35;;;;;;;6.00;4.32;;;19.20;99.90;;;;;;5031423;28;20077;-61
2022/07/31 02:05:04;;;;;;;6.22;4.40;;;19.30;99.90;;;;;;5036054;28;20579;-61
2022/07/31 02:07:30;;;;;;;7.75;4.63;;;19.20;99.90;;;;;;5035887;28;20681;-61
2022/07/31 02:09:57;;;;;;;7.68;4.13;;;19.30;99.90;;;;;;5036293;28;20044;-62
2022/07/31 02:12:24;;;;;;;8.65;4.65;;;19.20;99.90;;;;;;5035478;28;20095;-61
2022/07/31 02:14:51;;;;;;;7.13;3.97;;;19.20;99.90;;;;;;5011675;28;20045;-61
2022/07/31 02:17:18;;;;;;;6.43;4.22;;;19.20;99.90;;;;;;5053407;28;20119;-62
2022/07/31 02:19:44;;;;;;;7.25;4.40;;;19.10;99.90;;;;;;5053307;28;20116;-61
2022/07/31 02:22:10;;;;;;;9.48;4.15;;;19.20;99.90;;;;;;5039728;28;20045;-62
2022/07/31 02:24:37;;;;;;;5.65;4.00;;;19.10;99.90;;;;;;5036102;28;20094;-62
2022/07/31 02:27:03;;;;;;;8.07;4.30;;;19.20;99.90;;;;;;5039784;28;20378;-62
2022/07/31 02:29:31;;;;;;;8.02;4.45;;;19.10;99.90;;;;;;5052887;28;20457;-61
2022/07/31 02:31:58;;;;;;;5.18;4.03;;;19.20;99.90;;;;;;5053022;28;20117;-61
2022/07/31 02:34:25;;;;;;;6.85;4.00;;;19.20;99.90;;;;;;5026513;28;20098;-62
2022/07/31 02:36:52;;;;;;;7.32;4.82;;;19.20;99.90;;;;;;5050480;28;20102;-61
2022/07/31 02:39:19;;;;;;;5.35;4.00;;;19.20;99.90;;;;;;5043086;28;20045;-62
2022/07/31 02:41:46;;;;;;;7.03;4.32;;;19.20;99.90;;;;;;5048661;28;20052;-62
2022/07/31 02:44:13;;;;;;;6.80;4.30;;;19.20;99.90;;;;;;5042599;28;20489;-61
2022/07/31 02:46:43;;;;;;;8.80;4.60;;;19.20;99.90;;;;;;5052653;28;20044;-61
2022/07/31 02:49:12;;;;;;;6.57;4.43;;;19.20;99.90;;;;;;5052786;28;20040;-61
2022/07/31 02:51:39;;;;;;;6.68;4.88;;;19.20;99.90;;;;;;5035183;28;20102;-61
2022/07/31 02:54:05;;;;;;;7.30;4.43;;;19.10;99.90;;;;;;5014114;28;20090;-61
2022/07/31 02:56:32;;;;;;;7.93;5.05;;;19.10;99.90;;;;;;5035280;28;20033;-61
2022/07/31 02:58:58;;;;;;;7.50;4.95;;;19.10;99.90;;;;;;5049084;28;20049;-61
2022/07/31 03:01:24;;;;;;;7.07;4.60;;;19.10;99.90;;;;;;5042360;28;20045;-62
2022/07/31 03:03:49;;;;;;;8.07;4.82;;;19.00;99.90;;;;;;5028719;28;20060;-62
2022/07/31 03:06:16;;;;;;;6.38;5.10;;;19.00;99.90;;;;;;5052607;28;20037;-62
2022/07/31 03:08:43;;;;;;;5.80;4.93;;;19.00;99.90;;;;;;5052604;28;20090;-61
2022/07/31 03:11:09;;;;;;;6.32;4.85;;;18.90;99.90;;;;;;5026943;28;20366;-61
2022/07/31 03:13:36;;;;;;;10.00;5.03;;;19.00;99.90;;;;;;5012977;28;20111;-61
2022/07/31 03:16:03;;;;;;;7.93;5.30;;;19.00;99.90;;;;;;5044402;28;20057;-61
2022/07/31 03:18:31;;;;;;;7.07;4.95;;;18.90;99.90;;;;;;5032554;28;20378;-62
2022/07/31 03:20:57;;;;;;;8.00;4.82;;;18.90;99.90;;;;;;5035032;28;20033;-61
2022/07/31 03:23:25;;;;;;;8.15;5.45;;;18.90;99.90;;;;;;5041222;28;20040;-61
2022/07/31 03:25:52;;;;;;;7.35;4.97;;;18.90;99.90;;;;;;5043498;28;20083;-61
2022/07/31 03:28:18;;;;;;;6.43;4.95;;;18.90;99.90;;;;;;5052477;28;20037;-61
2022/07/31 03:30:45;;;;;;;9.48;5.35;;;18.90;99.90;;;;;;5043483;28;20045;-61
2022/07/31 03:33:11;;;;;;;6.60;5.30;;;18.90;99.90;;;;;;5030172;28;20037;-62
2022/07/31 03:35:36;;;;;;;8.32;5.13;;;18.90;99.90;;;;;;5019778;28;20044;-61
2022/07/31 03:38:04;;;;;;;8.10;5.03;;;18.90;99.90;;;;;;5032177;28;20113;-61
2022/07/31 03:40:30;;;;;;;8.27;5.20;;;18.90;99.90;;;;;;5051810;28;20103;-63
2022/07/31 03:42:58;;;;;;;8.77;5.28;;;18.90;99.90;;;;;;5044775;28;20037;-62
2022/07/31 03:45:25;;;;;;;9.85;5.85;;;18.80;99.90;;;;;;5028494;28;20045;-61
2022/07/31 03:47:51;;;;;;;8.82;5.50;;;18.90;99.90;;;;;;5032385;28;20073;-61
2022/07/31 03:50:17;;;;;;;7.35;5.03;;;18.90;99.90;;;;;;5033755;28;20143;-61
2022/07/31 03:52:44;;;;;;;7.43;5.05;;;18.90;99.90;;;;;;5046686;28;20033;-62
2022/07/31 03:55:10;;;;;;;8.20;5.25;;;18.90;99.90;;;;;;5045609;28;20365;-61
2022/07/31 03:57:37;;;;;;;8.35;5.18;;;18.90;99.90;;;;;;5031862;28;20045;-61
2022/07/31 04:00:04;;;;;;;7.18;4.70;;;18.90;99.90;;;;;;5032115;28;20041;-62
2022/07/31 04:02:30;;;;;;;8.40;5.05;;;18.90;99.90;;;;;;5030754;28;20056;-61
2022/07/31 04:04:56;;;;;;;9.38;5.63;;;18.90;99.90;;;;;;5042471;28;20120;-61
2022/07/31 04:07:22;;;;;;;6.28;5.43;;;18.90;99.90;;;;;;5049086;28;20229;-62
2022/07/31 04:09:48;;;;;;;8.77;5.75;;;18.90;99.90;;;;;;5040642;28;20045;-61
2022/07/31 04:12:14;;;;;;;7.82;5.68;;;18.90;99.90;;;;;;5036367;28;20044;-61
2022/07/31 04:14:40;;;;;;;11.05;5.47;;;18.90;99.90;;;;;;5008501;28;20045;-61
2022/07/31 04:17:06;;;;;;;7.85;5.07;;;18.80;99.90;;;;;;5041399;28;20429;-61
2022/07/31 04:19:32;;;;;;;7.90;5.85;;;18.80;99.90;;;;;;5039936;28;20477;-61
2022/07/31 04:21:58;;;;;;;11.80;5.72;;;18.80;99.90;;;;;;5037521;28;20068;-61
2022/07/31 04:24:24;;;;;;;9.02;5.68;;;18.80;99.90;;;;;;5048817;28;20048;-62
2022/07/31 04:26:51;;;;;;;6.95;5.53;;;18.80;99.90;;;;;;5049801;28;20366;-61
2022/07/31 04:29:17;;;;;;;8.50;5.70;;;18.80;99.90;;;;;;5046113;28;20094;-62
2022/07/31 04:31:42;;;;;;;7.22;5.38;;;18.80;99.90;;;;;;5055057;28;20032;-61
2022/07/31 04:34:08;;;;;;;8.15;6.00;;;18.80;99.90;;;;;;5038082;28;20033;-63
2022/07/31 04:36:34;;;;;;;8.10;5.72;;;18.80;99.90;;;;;;5017394;28;20045;-61
2022/07/31 04:39:00;;;;;;;8.50;5.63;;;18.80;99.90;;;;;;5000992;28;20467;-61
2022/07/31 04:41:26;;;;;;;8.07;5.82;;;18.80;99.90;;;;;;5034892;28;20121;-62
2022/07/31 04:43:52;;;;;;;8.75;5.50;;;18.80;99.90;;;;;;5027067;28;20033;-61
2022/07/31 04:46:18;;;;;;;7.80;5.80;;;18.80;99.90;;;;;;5046368;28;20479;-61
2022/07/31 04:48:44;;;;;;;7.85;6.18;;;18.90;99.90;;;;;;5051112;28;20100;-61
2022/07/31 04:51:19;;;;;;;7.85;6.07;;;18.80;99.90;;;;;;5017201;28;20049;-62
2022/07/31 04:53:52;;;;;;;7.25;5.43;;;18.90;99.90;;;;;;5031413;28;20343;-61
2022/07/31 04:56:34;;;;;;;9.03;5.90;;;18.90;99.90;;;;;;5054914;28;20048;-61
2022/07/31 04:59:04;;;;;;;9.68;6.03;;;18.90;99.90;;;;;;5032718;28;20037;-61
2022/07/31 05:01:31;;;;;;;9.02;5.88;;;18.90;99.90;;;;;;5034554;28;20072;-62
2022/07/31 05:03:57;;;;;;;7.65;5.55;;;18.90;99.90;;;;;;5023497;28;20049;-61
2022/07/31 05:06:30;;;;;;;8.40;6.30;;;19.00;99.90;;;;;;5034315;28;20033;-61
2022/07/31 05:08:56;;;;;;;7.10;5.50;;;19.00;99.90;;;;;;5050001;28;20088;-62
2022/07/31 05:11:22;;;;;;;11.63;5.93;;;19.00;99.90;;;;;;5054354;28;20394;-62
2022/07/31 05:13:53;;;;;;;8.48;5.85;;;19.00;99.90;;;;;;5040562;28;20095;-62
2022/07/31 05:16:20;;;;;;;9.60;5.65;;;19.10;99.90;;;;;;5027008;28;20071;-61
2022/07/31 05:18:46;;;;;;;7.60;5.75;;;19.10;99.90;;;;;;5041672;28;20080;-61
2022/07/31 05:21:14;;;;;;;6.50;5.32;;;19.20;99.90;;;;;;5034291;28;20175;-61
2022/07/31 05:23:40;;;;;;;6.85;5.72;;;19.20;99.90;;;;;;5040446;28;20052;-62
2022/07/31 05:26:06;;;;;;;9.40;5.78;;;19.30;99.90;;;;;;5041156;28;20042;-61
2022/07/31 05:28:32;;;;;;;5.85;5.20;;;19.30;99.90;;;;;;5046912;28;20041;-61
2022/07/31 05:30:59;;;;;;;9.30;5.40;;;19.40;99.90;;;;;;5023229;28;20060;-61
2022/07/31 05:33:25;;;;;;;7.75;5.65;;;19.40;99.90;;;;;;5038134;28;20036;-61
2022/07/31 05:35:51;;;;;;;8.65;5.45;;;19.40;99.90;;;;;;5022670;28;20455;-62
2022/07/31 05:38:16;;;;;;;7.63;5.88;;;19.40;99.90;;;;;;5025235;28;20029;-61
2022/07/31 05:40:42;;;;;;;6.70;5.22;;;19.50;99.90;;;;;;4999818;28;20104;-62
2022/07/31 05:43:09;;;;;;;7.18;5.13;;;19.50;99.90;;;;;;5022354;28;20030;-62
2022/07/31 05:45:35;;;;;;;8.68;5.97;;;19.60;99.90;;;;;;5017954;28;20049;-62
2022/07/31 05:48:01;;;;;;;9.57;5.88;;;19.70;99.90;;;;;;5023633;28;20125;-61
2022/07/31 05:50:27;;;;;;;7.07;5.47;;;19.70;99.90;;;;;;5019549;28;20103;-62
2022/07/31 05:52:53;;;;;;;12.43;6.03;;;19.70;99.90;;;;;;5016501;28;20402;-61
2022/07/31 05:55:19;;;;;;;9.30;5.93;;;19.70;99.90;;;;;;5022648;28;20041;-62
2022/07/31 05:57:45;;;;;;;11.80;6.00;;;19.80;99.90;;;;;;5027761;28;20038;-61
2022/07/31 06:00:15;;;;;;;10.40;6.18;;;19.80;99.90;;;;;;5022412;28;20091;-63
2022/07/31 06:02:41;;;;;;;11.13;6.20;;;19.80;99.90;;;;;;5028738;28;20045;-62
2022/07/31 06:05:08;;;;;;;7.80;5.95;;;19.90;99.90;;;;;;5031123;28;20041;-63
2022/07/31 06:07:33;;;;;;;7.07;5.68;;;19.90;99.90;;;;;;5032386;28;20133;-62
2022/07/31 06:10:00;;;;;;;8.07;5.95;;;20.00;99.90;;;;;;5032899;28;20116;-62
2022/07/31 06:12:26;;;;;;;8.18;6.05;;;20.00;99.90;;;;;;5014461;28;20580;-62
2022/07/31 06:14:51;;;;;;;8.07;6.20;;;20.00;99.90;;;;;;5032155;28;20061;-62
2022/07/31 06:17:17;;;;;;;8.18;6.07;;;20.00;99.90;;;;;;5032307;28;20033;-62
2022/07/31 06:19:43;;;;;;;9.60;6.53;;;20.00;99.90;;;;;;5029489;28;20037;-63
2022/07/31 06:22:08;;;;;;;9.63;6.28;;;20.10;99.90;;;;;;5032165;28;20038;-60
2022/07/31 06:24:34;;;;;;;9.15;6.03;;;20.20;99.90;;;;;;5030946;28;20053;-63
2022/07/31 06:27:01;;;;;;;12.07;7.75;;;20.20;99.90;;;;;;5032712;28;20088;-63
2022/07/31 06:29:27;;;;;;;11.77;6.50;;;20.40;99.90;;;;;;5032769;28;20037;-60
2022/07/31 06:31:56;;;;;;;11.80;7.88;;;20.50;99.90;;;;;;5015020;28;20114;-63
2022/07/31 06:34:24;;;;;;;9.48;6.88;;;20.60;99.90;;;;;;5031677;28;20033;-64
2022/07/31 06:36:50;;;;;;;7.90;6.13;;;20.80;99.90;;;;;;5032273;28;20117;-64
2022/07/31 06:39:16;;;;;;;9.75;7.63;;;20.90;99.90;;;;;;5032187;28;20172;-62
2022/07/31 06:41:48;;;;;;;9.10;7.57;;;21.00;99.90;;;;;;5032499;28;20041;-62
2022/07/31 06:44:15;;;;;;;9.70;7.28;;;21.00;99.90;;;;;;5031510;28;20056;-62
2022/07/31 06:46:41;;;;;;;8.60;7.03;;;21.00;99.90;;;;;;5035556;28;20029;-63
2022/07/31 06:49:07;;;;;;;8.40;7.38;;;21.00;99.90;;;;;;5032431;28;20037;-63
2022/07/31 06:51:33;;;;;;;10.88;7.35;;;21.10;99.90;;;;;;5032347;28;20029;-61
2022/07/31 06:54:00;;;;;;;10.05;7.50;;;21.10;99.90;;;;;;5006166;28;20060;-60
2022/07/31 06:56:27;;;;;;;8.57;7.07;;;21.00;99.90;;;;;;5032521;28;20112;-62
2022/07/31 06:58:52;;;;;;;11.10;7.47;;;21.10;99.90;;;;;;5032302;28;20045;-60
2022/07/31 07:01:18;;;;;;;11.00;7.43;;;21.10;99.90;;;;;;5032605;28;20041;-60
2022/07/31 07:03:44;;;;;;;9.63;7.65;;;21.10;99.90;;;;;;5021792;28;20060;-64
2022/07/31 07:06:10;;;;;;;10.85;7.50;;;21.00;99.90;;;;;;5031987;28;20072;-62
2022/07/31 07:08:35;;;;;;;12.13;7.93;;;21.10;99.90;;;;;;5031966;28;20045;-62
2022/07/31 07:11:01;;;;;;;9.13;7.70;;;21.10;99.90;;;;;;5031938;28;20044;-62
2022/07/31 07:13:26;;;;;;;12.82;7.28;;;21.10;99.90;;;;;;5030766;28;20030;-62
2022/07/31 07:15:52;;;;;;;10.70;7.07;;;21.10;99.90;;;;;;5031789;28;20050;-62
2022/07/31 07:18:20;;;;;;;8.68;7.07;;;21.10;99.90;;;;;;5031932;28;20046;-62
2022/07/31 07:20:46;;;;;;;11.48;7.15;;;21.10;99.90;;;;;;5032244;28;20092;-62
2022/07/31 07:23:12;;;;;;;9.73;6.90;;;21.10;99.90;;;;;;5021716;28;20049;-61
2022/07/31 07:25:39;;;;;;;9.73;6.90;;;21.10;99.90;;;;;;5052139;28;20041;-62
2022/07/31 07:28:05;;;;;;;9.50;6.55;;;21.10;99.90;;;;;;5036639;28;20041;-63
2022/07/31 07:30:31;;;;;;;9.05;6.55;;;21.10;99.90;;;;;;5031786;28;20398;-62
2022/07/31 07:32:58;;;;;;;8.88;6.15;;;21.10;99.90;;;;;;5030740;28;20079;-63
2022/07/31 07:35:24;;;;;;;8.07;5.90;;;21.20;99.90;;;;;;5046096;28;20086;-63
2022/07/31 07:37:49;;;;;;;8.63;6.10;;;21.20;99.90;;;;;;5032095;28;20041;-62
2022/07/31 07:40:18;;;;;;;8.85;6.03;;;21.30;99.90;;;;;;5049464;28;20505;-62
2022/07/31 07:42:45;;;;;;;8.55;6.03;;;21.30;99.90;;;;;;5039741;28;20492;-62
2022/07/31 07:45:10;;;;;;;8.18;6.10;;;21.30;99.90;;;;;;5043534;28;20382;-63
2022/07/31 07:47:37;;;;;;;8.32;6.13;;;21.40;99.90;;;;;;5052165;28;20040;-62
2022/07/31 07:50:04;;;;;;;8.32;5.50;;;21.40;99.90;;;;;;5037753;28;20041;-62
2022/07/31 07:52:30;;;;;;;7.50;6.00;;;21.50;99.90;;;;;;5035029;28;20056;-62
2022/07/31 07:54:56;;;;;;;8.68;5.85;;;21.60;99.90;;;;;;5047410;28;20366;-64
2022/07/31 07:57:22;;;;;;;8.38;5.47;;;21.70;99.90;;;;;;5037651;28;20112;-62
2022/07/31 07:59:48;;;;;;;8.00;6.25;;;21.80;99.90;;;;;;5035995;28;20052;-63
2022/07/31 08:02:14;;;;;;;8.50;6.00;;;21.90;99.90;;;;;;5037759;28;20623;-63
2022/07/31 08:04:40;;;;;;;10.30;6.22;;;22.00;99.90;;;;;;5035735;28;20056;-61
2022/07/31 08:07:06;;;;;;;8.55;6.25;;;22.10;99.90;;;;;;5035388;28;20116;-62
2022/07/31 08:09:32;;;;;;;10.05;6.13;;;22.00;99.90;;;;;;5035728;28;20033;-62
2022/07/31 08:11:58;;;;;;;8.70;5.85;;;22.00;99.90;;;;;;5035542;28;20049;-62
2022/07/31 08:14:24;;;;;;;9.68;5.75;;;22.00;99.90;;;;;;5028967;28;20072;-62
2022/07/31 08:16:51;;;;;;;12.52;6.55;;;22.00;99.90;;;;;;5037637;28;20138;-62
2022/07/31 08:19:17;;;;;;;9.63;6.50;;;22.00;99.90;;;;;;5052593;28;20537;-64
2022/07/31 08:21:42;;;;;;;11.98;7.40;;;22.00;99.90;;;;;;5035440;28;20128;-62
2022/07/31 08:24:09;;;;;;;10.48;7.10;;;21.90;99.90;;;;;;5045619;28;20045;-62
2022/07/31 08:29:23;;;;;;;11.80;7.40;;;21.90;99.90;;;;;;5021472;28;20522;-62
2022/07/31 08:31:50;;;;;;;10.50;7.47;;;21.80;99.90;;;;;;5018119;28;20112;-62
2022/07/31 08:34:16;;;;;;;8.02;6.75;;;21.80;99.90;;;;;;5021429;28;20038;-62
2022/07/31 08:36:42;;;;;;;7.97;6.57;;;21.70;99.90;;;;;;5020304;28;20154;-62
2022/07/31 08:39:08;;;;;;;10.65;7.38;;;21.70;99.90;;;;;;5005739;28;20048;-62
2022/07/31 08:41:37;;;;;;;11.60;7.88;;;21.50;99.90;;;;;;5035239;28;20140;-62
2022/07/31 08:44:04;;;;;;;10.98;8.23;;;21.50;99.90;;;;;;5030584;28;20045;-61
2022/07/31 08:46:38;;;;;;;12.07;8.25;;;21.50;99.90;;;;;;5035217;28;20128;-62
2022/07/31 08:49:06;;;;;;;12.02;8.27;;;21.50;99.90;;;;;;5029086;28;20230;-62
2022/07/31 08:51:37;;;;;;;11.35;7.70;;;21.50;99.90;;;;;;5027196;28;20037;-63
2022/07/31 08:54:07;;;;;;;10.55;8.15;;;21.40;99.90;;;;;;5014847;28;20374;-63
2022/07/31 08:56:34;;;;;;;12.27;8.30;;;21.40;99.90;;;;;;5034769;28;20034;-63
2022/07/31 08:59:01;;;;;;;13.23;8.25;;;21.30;99.90;;;;;;4995920;28;20450;-63
2022/07/31 09:01:27;;;;;;;9.68;8.18;;;21.20;99.90;;;;;;5035478;28;20056;-64
2022/07/31 09:03:58;;;;;;;14.55;8.27;;;21.20;99.90;;;;;;5034401;28;20421;-65
2022/07/31 09:06:23;;;;;;;9.73;8.70;;;21.20;99.90;;;;;;5017752;28;20128;-62
2022/07/31 09:08:49;;;;;;;12.40;9.55;;;21.10;99.90;;;;;;5014887;28;20124;-63
2022/07/31 09:11:15;;;;;;;12.57;9.38;;;21.10;99.90;;;;;;5034494;28;20125;-63
2022/07/31 09:13:53;;;;;;;11.07;9.10;;;21.00;99.90;;;;;;5033302;28;20049;-62
2022/07/31 09:16:19;;;;;;;13.15;9.00;;;21.00;99.90;;;;;;5029147;28;20374;-63
2022/07/31 09:18:57;;;;;;;15.23;9.80;;;20.90;99.90;;;;;;5023079;28;20049;-63
2022/07/31 09:21:23;;;;;;;13.00;9.35;;;20.80;99.90;;;;;;5012034;28;20033;-64
2022/07/31 09:23:49;;;;;;;14.30;9.00;;;20.80;99.90;;;;;;5015275;28;20055;-64
2022/07/31 09:26:14;;;;;;;11.50;9.77;;;20.80;99.90;;;;;;5023121;28;20041;-64
2022/07/31 09:28:46;;;;;;;12.98;10.27;;;20.80;99.90;;;;;;5016529;28;20080;-63
2022/07/31 09:31:15;;;;;;;13.05;9.57;;;20.80;99.90;;;;;;5034943;28;20045;-63
2022/07/31 09:33:45;;;;;;;16.60;9.48;;;20.80;99.90;;;;;;5016023;28;20038;-63
2022/07/31 09:36:12;;;;;;;13.82;10.20;;;20.80;99.90;;;;;;5017117;28;20091;-62
2022/07/31 09:38:41;;;;;;;12.93;9.63;;;20.90;99.90;;;;;;5034012;28;20052;-63
2022/07/31 09:41:14;;;;;;;11.60;9.68;;;20.90;99.90;;;;;;5012365;28;20422;-63
2022/07/31 09:43:40;;;;;;;12.13;9.60;;;20.90;99.90;;;;;;4992604;28;20064;-63
2022/07/31 09:46:07;;;;;;;12.68;9.55;;;21.00;99.90;;;;;;5016820;28;20348;-62
2022/07/31 09:48:34;;;;;;;11.88;9.60;;;21.00;99.90;;;;;;5033938;28;20041;-62
2022/07/31 09:51:07;;;;;;;12.30;10.15;;;21.00;99.90;;;;;;5027990;28;20045;-62
2022/07/31 09:53:42;;;;;;;14.65;10.27;;;21.10;99.90;;;;;;5020833;28;20034;-62
2022/07/31 09:56:11;;;;;;;12.98;9.40;;;21.10;99.90;;;;;;5025898;28;20098;-63
2022/07/31 09:58:40;;;;;;;11.55;9.85;;;21.20;99.90;;;;;;5004494;28;20056;-62
2022/07/31 10:01:08;;;;;;;11.50;8.95;;;21.20;99.90;;;;;;5020228;28;20474;-62
2022/07/31 10:03:38;;;;;;;11.05;8.07;;;21.20;99.90;;;;;;5016820;28;20392;-62
2022/07/31 10:06:12;;;;;;;13.32;9.00;;;21.10;99.90;;;;;;4991459;28;20342;-62
2022/07/31 10:08:40;;;;;;;11.15;8.93;;;21.00;99.90;;;;;;5030130;28;20443;-62
2022/07/31 10:11:06;;;;;;;11.20;8.43;;;21.00;99.90;;;;;;5016769;28;20049;-62
2022/07/31 10:13:37;;;;;;;13.52;8.93;;;21.00;99.90;;;;;;5027067;28;20041;-62
2022/07/31 10:16:05;;;;;;;14.13;9.10;;;20.90;99.90;;;;;;5029953;28;20049;-63
2022/07/31 10:18:36;;;;;;;12.68;9.05;;;20.90;99.90;;;;;;5032990;28;20033;-62
2022/07/31 10:21:04;;;;;;;13.50;9.48;;;20.80;99.90;;;;;;5031883;28;20052;-62
2022/07/31 10:23:32;;;;;;;11.77;9.80;;;20.70;99.90;;;;;;5031415;28;20029;-61
2022/07/31 10:26:00;;;;;;;12.60;9.13;;;20.60;99.90;;;;;;5015150;28;20041;-62
2022/07/31 10:28:29;;;;;;;11.63;9.45;;;20.60;99.90;;;;;;5013165;28;20037;-61
2022/07/31 10:30:56;;;;;;;11.18;9.15;;;20.60;99.90;;;;;;5028375;28;20037;-62
2022/07/31 10:33:22;;;;;;;11.63;8.35;;;20.70;99.90;;;;;;5031031;28;20037;-63
2022/07/31 10:36:15;;;;;;;12.63;9.55;;;20.70;99.90;;;;;;5029753;28;20447;-62
2022/07/31 10:39:11;;;;;;;10.52;8.88;;;20.70;99.90;;;;;;5013808;28;20045;-64
2022/07/31 10:42:05;;;;;;;13.50;9.38;;;20.70;99.90;;;;;;5023247;28;20052;-63
2022/07/31 10:45:12;;;;;;;13.98;8.85;;;20.70;99.90;;;;;;5006746;28;20041;-64
2022/07/31 10:47:39;;;;;;;11.43;8.82;;;20.70;99.90;;;;;;5024167;28;20246;-63
2022/07/31 10:50:06;;;;;;;13.20;10.50;;;20.70;99.90;;;;;;5031281;28;20037;-64
2022/07/31 10:52:37;;;;;;;11.20;9.75;;;20.70;99.90;;;;;;5031994;28;20033;-65
2022/07/31 10:55:24;;;;;;;14.75;10.60;;;20.70;99.90;;;;;;5032044;28;20355;-63
2022/07/31 10:57:50;;;;;;;13.35;10.90;;;20.70;99.90;;;;;;5021295;28;20433;-62
2022/07/31 11:00:19;;;;;;;13.13;10.65;;;20.60;99.90;;;;;;5015652;28;20532;-61
2022/07/31 11:02:46;;;;;;;13.77;10.50;;;20.60;99.90;;;;;;5010517;28;20046;-61
2022/07/31 11:05:20;;;;;;;16.98;11.77;;;20.60;99.90;;;;;;5015215;28;20331;-62
2022/07/31 11:07:46;;;;;;;14.82;11.27;;;20.50;99.90;;;;;;5020341;28;20099;-61
2022/07/31 11:10:20;;;;;;;16.27;12.32;;;20.40;99.90;;;;;;5016258;28;20049;-61
2022/07/31 11:13:06;;;;;;;17.10;12.35;;;20.40;99.90;;;;;;5016997;28;20045;-61
2022/07/31 11:15:32;;;;;;;16.55;14.23;;;20.40;99.90;;;;;;5003313;28;20050;-61
2022/07/31 11:18:09;;;;;;;17.35;13.65;;;20.30;99.90;;;;;;5028709;28;20429;-60
2022/07/31 11:20:35;;;;;;;16.67;13.50;;;20.30;99.90;;;;;;5012624;28;20053;-61
2022/07/31 11:23:03;;;;;;;15.23;13.45;;;20.30;99.90;;;;;;5004691;28;20374;-61
2022/07/31 11:25:33;;;;;;;19.02;14.43;;;20.30;99.90;;;;;;5026398;28;20098;-61
2022/07/31 11:28:11;;;;;;;16.70;14.43;;;20.10;99.90;;;;;;5057558;28;20445;-61
2022/07/31 11:30:54;;;;;;;17.17;14.70;;;20.20;99.90;;;;;;5046840;28;20045;-61
2022/07/31 11:33:29;;;;;;;19.80;14.95;;;20.10;99.90;;;;;;5043620;28;20132;-61
2022/07/31 11:35:57;;;;;;;19.77;16.17;;;20.20;99.90;;;;;;5047934;28;20033;-61
2022/07/31 11:38:27;;;;;;;23.50;17.40;;;20.20;99.90;;;;;;5042001;28;20412;-61
2022/07/31 11:40:53;;;;;;;24.00;18.05;;;20.20;99.90;;;;;;5033726;28;20040;-62
2022/07/31 11:43:18;;;;;;;22.75;17.90;;;20.30;99.90;;;;;;5024558;28;20033;-62
2022/07/31 11:45:50;;;;;;;24.00;17.92;;;20.30;99.90;;;;;;5040689;28;20036;-62
2022/07/31 11:48:16;;;;;;;20.48;17.85;;;20.30;99.90;;;;;;5027263;28;20124;-61
2022/07/31 11:50:43;;;;;;;27.40;20.35;;;20.50;99.90;;;;;;5052158;28;20052;-61
2022/07/31 11:53:10;;;;;;;22.90;18.83;;;20.60;99.90;;;;;;5037575;28;20041;-61
2022/07/31 11:55:52;;;;;;;23.58;18.83;;;20.60;99.90;;;;;;5037163;28;20033;-62
2022/07/31 11:58:20;;;;;;;22.42;19.17;;;20.60;99.90;;;;;;5037544;28;20103;-62
2022/07/31 12:00:51;;;;;;;25.67;20.83;;;20.50;99.90;;;;;;5036598;28;20045;-61
2022/07/31 12:03:19;;;;;;;26.02;20.85;;;20.50;99.90;;;;;;5034222;28;20370;-61
2022/07/31 12:05:51;;;;;;;25.45;20.80;;;20.50;99.90;;;;;;5035827;28;20057;-62
2022/07/31 12:08:17;;;;;;;24.92;20.50;;;20.50;99.90;;;;;;5025391;28;20049;-63
2022/07/31 12:10:44;;;;;;;24.23;21.63;;;20.40;99.90;;;;;;5035529;28;20045;-62
2022/07/31 12:13:14;;;;;;;23.98;20.63;;;20.30;99.90;;;;;;5041853;28;20048;-61
2022/07/31 12:15:41;;;;;;;24.02;20.60;;;20.30;99.90;;;;;;5034585;28;20387;-62
2022/07/31 12:18:08;;;;;;;22.98;19.98;;;20.20;99.90;;;;;;5027813;28;20037;-64
2022/07/31 12:20:34;;;;;;;24.48;20.77;;;20.20;99.90;;;;;;5021483;28;20109;-60
2022/07/31 12:23:01;;;;;;;24.00;19.95;;;20.20;99.90;;;;;;5023684;28;20202;-59
2022/07/31 12:25:27;;;;;;;24.38;20.08;;;20.30;99.90;;;;;;5027747;28;20536;-60
2022/07/31 12:27:53;;;;;;;25.55;21.67;;;20.40;99.90;;;;;;5031226;28;20087;-61
2022/07/31 12:30:23;;;;;;;24.70;21.02;;;20.40;99.90;;;;;;5029497;28;20069;-61
2022/07/31 12:32:49;;;;;;;24.63;21.40;;;20.40;99.90;;;;;;5028950;28;20048;-61
2022/07/31 12:35:15;;;;;;;25.48;21.25;;;20.40;99.90;;;;;;5032473;28;20456;-63
2022/07/31 12:37:46;;;;;;;24.05;21.10;;;20.40;99.90;;;;;;5030171;28;20521;-61
2022/07/31 12:40:26;;;;;;;27.67;22.98;;;20.40;99.90;;;;;;5033200;28;20068;-61
2022/07/31 12:42:54;;;;;;;26.00;22.05;;;20.40;99.90;;;;;;5033443;28;20516;-60
2022/07/31 12:45:40;;;;;;;27.20;22.73;;;20.40;99.90;;;;;;4993378;28;20053;-62
2022/07/31 12:48:06;;;;;;;23.98;21.20;;;20.40;99.90;;;;;;5016328;28;20354;-61